createdAt,value
2018-06-12T00:01:32.009Z,16.87
2018-06-12T00:03:59.617Z,17.40
2018-06-12T00:06:27.173Z,18.13
2018-06-12T00:08:54.826Z,16.83
2018-06-12T00:11:22.353Z,17.60
2018-06-12T00:13:49.954Z,17.30
2018-06-12T00:16:17.509Z,18.07
2018-06-12T00:18:45.119Z,17.73
2018-06-12T00:21:12.749Z,17.63
2018-06-12T00:23:40.283Z,17.27
2018-06-12T00:26:07.821Z,17.80
2018-06-12T00:28:35.349Z,17.27
2018-06-12T00:31:02.915Z,18.47
2018-06-12T00:33:30.433Z,16.77
2018-06-12T00:35:58.005Z,17.87
2018-06-12T00:38:25.536Z,17.47
2018-06-12T00:40:53.124Z,17.40
2018-06-12T00:43:20.629Z,16.97
2018-06-12T00:45:48.281Z,17.70
2018-06-12T00:48:15.794Z,18.13
2018-06-12T00:50:43.331Z,16.90
2018-06-12T00:53:10.853Z,17.60
2018-06-12T00:55:38.405Z,17.60
2018-06-12T00:58:05.929Z,17.47
2018-06-12T01:00:33.474Z,17.03
2018-06-12T01:03:01.009Z,17.07
2018-06-12T01:05:28.569Z,17.13
2018-06-12T01:07:56.181Z,17.57
2018-06-12T01:10:23.717Z,16.27
2018-06-12T01:12:51.357Z,16.70
2018-06-12T01:15:18.923Z,16.70
2018-06-12T01:17:46.465Z,15.93
2018-06-12T01:20:14.049Z,16.37
2018-06-12T01:22:42.492Z,15.03
2018-06-12T01:25:10.169Z,15.87
2018-06-12T01:27:37.750Z,14.10
2018-06-12T01:30:05.315Z,15.23
2018-06-12T01:32:33.012Z,14.30
2018-06-12T01:35:00.549Z,14.20
2018-06-12T01:37:28.146Z,14.80
2018-06-12T01:39:55.677Z,14.47
2018-06-12T01:42:23.241Z,12.97
2018-06-12T01:44:50.814Z,12.77
2018-06-12T01:47:18.369Z,13.47
2018-06-12T01:49:45.925Z,13.93
2018-06-12T01:52:13.473Z,13.77
2018-06-12T01:54:41.018Z,14.60
2018-06-12T01:57:15.041Z,14.73
2018-06-12T01:59:42.572Z,14.20
2018-06-12T02:02:10.180Z,14.70
2018-06-12T02:04:37.729Z,13.30
2018-06-12T02:07:05.320Z,14.53
2018-06-12T02:09:32.849Z,13.57
2018-06-12T02:12:00.449Z,13.20
2018-06-12T02:14:29.426Z,13.63
2018-06-12T02:16:56.972Z,14.33
2018-06-12T02:19:24.520Z,14.50
2018-06-12T02:21:52.097Z,15.07
2018-06-12T02:24:19.660Z,15.43
2018-06-12T02:26:47.201Z,13.53
2018-06-12T02:29:14.758Z,14.10
2018-06-12T02:31:42.349Z,13.70
2018-06-12T02:34:09.863Z,14.77
2018-06-12T02:36:37.429Z,15.50
2018-06-12T02:39:06.445Z,13.77
2018-06-12T02:41:34.053Z,14.93
2018-06-12T02:44:01.575Z,14.03
2018-06-12T02:46:29.181Z,14.77
2018-06-12T02:48:56.774Z,15.43
2018-06-12T02:51:24.360Z,14.33
2018-06-12T02:53:51.914Z,15.10
2018-06-12T02:56:19.555Z,15.23
2018-06-12T02:58:47.089Z,14.53
2018-06-12T03:01:15.049Z,14.97
2018-06-12T03:03:42.634Z,15.03
2018-06-12T03:06:10.178Z,14.47
2018-06-12T03:08:37.777Z,15.73
2018-06-12T03:11:05.322Z,15.37
2018-06-12T03:13:32.913Z,13.93
2018-06-12T03:16:00.467Z,14.20
2018-06-12T03:18:28.041Z,14.50
2018-06-12T03:20:55.645Z,14.97
2018-06-12T03:23:23.269Z,17.30
2018-06-12T03:25:58.821Z,15.90
2018-06-12T03:28:26.404Z,15.83
2018-06-12T03:30:54.086Z,15.50
2018-06-12T03:33:21.734Z,17.07
2018-06-12T03:35:49.337Z,16.73
2018-06-12T03:38:17.089Z,18.20
2018-06-12T03:40:44.634Z,16.40
2018-06-12T03:43:12.173Z,15.60
2018-06-12T03:45:39.761Z,15.67
2018-06-12T03:48:07.429Z,17.53
2018-06-12T03:50:34.997Z,16.67
2018-06-12T03:53:02.563Z,16.73
2018-06-12T03:55:30.200Z,16.70
2018-06-12T03:57:57.758Z,17.87
2018-06-12T04:00:25.320Z,16.60
2018-06-12T04:02:52.885Z,16.50
2018-06-12T04:05:20.425Z,16.80
2018-06-12T04:07:48.009Z,16.70
2018-06-12T04:10:15.552Z,16.93
2018-06-12T04:12:43.114Z,17.33
2018-06-12T04:15:11.591Z,16.53
2018-06-12T04:17:39.174Z,16.90
2018-06-12T04:20:06.832Z,16.60
2018-06-12T04:22:34.398Z,17.37
2018-06-12T04:25:01.993Z,17.20
2018-06-12T04:27:30.018Z,18.17
2018-06-12T04:29:57.605Z,16.57
2018-06-12T04:32:25.145Z,17.27
2018-06-12T04:34:52.733Z,17.00
2018-06-12T04:37:20.391Z,21.90
2018-06-12T04:39:47.997Z,29.87
2018-06-12T04:42:15.536Z,19.80
2018-06-12T04:44:43.224Z,17.83
2018-06-12T04:47:10.738Z,18.27
2018-06-12T04:49:38.328Z,18.00
2018-06-12T04:52:05.925Z,18.20
2018-06-12T04:54:33.486Z,19.47
2018-06-12T04:57:01.029Z,18.87
2018-06-12T04:59:28.602Z,18.30
2018-06-12T05:01:57.292Z,18.97
2018-06-12T05:04:24.896Z,19.83
2018-06-12T05:06:53.276Z,19.87
2018-06-12T05:09:20.886Z,21.13
2018-06-12T05:11:48.707Z,20.20
2018-06-12T05:14:16.255Z,19.27
2018-06-12T05:16:43.937Z,21.83
2018-06-12T05:19:11.502Z,19.77
2018-06-12T05:21:39.035Z,20.57
2018-06-12T05:24:06.629Z,21.37
2018-06-12T05:26:34.141Z,20.07
2018-06-12T05:29:01.698Z,21.00
2018-06-12T05:31:29.225Z,19.50
2018-06-12T05:33:56.868Z,20.63
2018-06-12T05:36:24.464Z,19.60
2018-06-12T05:38:52.144Z,20.23
2018-06-12T05:41:19.701Z,19.80
2018-06-12T05:43:47.293Z,20.70
2018-06-12T05:46:14.838Z,21.37
2018-06-12T05:48:42.381Z,21.03
2018-06-12T05:51:09.963Z,21.20
2018-06-12T05:53:37.510Z,20.43
2018-06-12T05:56:05.103Z,21.53
2018-06-12T05:58:32.666Z,33.83
2018-06-12T06:01:00.237Z,27.17
2018-06-12T06:03:27.789Z,22.57
2018-06-12T06:05:55.366Z,20.50
2018-06-12T06:08:23.116Z,30.00
2018-06-12T06:10:50.677Z,23.23
2018-06-12T06:13:19.581Z,21.03
2018-06-12T06:15:47.239Z,21.43
2018-06-12T06:18:14.782Z,21.57
2018-06-12T06:20:42.359Z,20.60
2018-06-12T06:23:09.981Z,22.80
2018-06-12T06:25:37.554Z,20.63
2018-06-12T06:28:05.132Z,20.77
2018-06-12T06:30:32.696Z,20.83
2018-06-12T06:33:00.233Z,21.03
2018-06-12T06:35:27.813Z,22.67
2018-06-12T06:37:55.350Z,21.77
2018-06-12T06:40:22.960Z,21.10
2018-06-12T06:42:50.658Z,21.77
2018-06-12T06:45:18.232Z,23.30
2018-06-12T06:47:45.770Z,33.43
2018-06-12T06:50:13.334Z,30.30
2018-06-12T06:52:40.950Z,21.73
2018-06-12T06:55:08.562Z,21.13
2018-06-12T06:57:36.162Z,19.90
2018-06-12T07:00:04.042Z,19.23
2018-06-12T07:02:31.582Z,20.37
2018-06-12T07:04:59.136Z,19.63
2018-06-12T07:07:26.693Z,41.83
2018-06-12T07:09:54.311Z,22.97
2018-06-12T07:12:23.284Z,20.93
2018-06-12T07:14:50.932Z,21.43
2018-06-12T07:17:18.424Z,20.13
2018-06-12T07:19:46.989Z,21.10
2018-06-12T07:22:14.549Z,21.47
2018-06-12T07:24:42.105Z,21.03
2018-06-12T07:27:10.625Z,20.87
2018-06-12T07:29:39.017Z,19.77
2018-06-12T07:32:06.601Z,20.80
2018-06-12T07:34:34.153Z,20.30
2018-06-12T07:37:01.717Z,20.17
2018-06-12T07:39:30.199Z,20.53
2018-06-12T07:41:57.758Z,18.90
2018-06-12T07:44:25.516Z,19.63
2018-06-12T07:46:53.120Z,18.93
2018-06-12T07:49:20.678Z,19.23
2018-06-12T07:51:48.258Z,18.23
2018-06-12T07:54:15.818Z,19.37
2018-06-12T07:56:43.376Z,17.73
2018-06-12T07:59:10.961Z,16.83
2018-06-12T08:01:38.942Z,19.03
2018-06-12T08:04:06.838Z,17.97
2018-06-12T08:06:34.406Z,17.73
2018-06-12T08:09:02.016Z,18.47
2018-06-12T08:11:29.631Z,21.43
2018-06-12T08:13:57.210Z,22.67
2018-06-12T08:16:25.713Z,19.70
2018-06-12T08:18:53.784Z,19.67
2018-06-12T08:21:21.414Z,20.07
2018-06-12T08:23:48.982Z,19.80
2018-06-12T08:26:16.590Z,17.00
2018-06-12T08:28:44.153Z,18.20
2018-06-12T08:31:11.766Z,18.90
2018-06-12T08:33:39.336Z,17.73
2018-06-12T08:36:06.993Z,17.67
2018-06-12T08:38:34.534Z,17.27
2018-06-12T08:41:02.106Z,17.57
2018-06-12T08:43:29.681Z,18.37
2018-06-12T08:45:57.736Z,17.00
2018-06-12T08:48:25.313Z,16.93
2018-06-12T08:50:52.857Z,15.33
2018-06-12T08:53:20.445Z,16.07
2018-06-12T08:55:48.029Z,15.57
2018-06-12T08:58:16.105Z,15.40
2018-06-12T09:00:43.652Z,14.87
2018-06-12T09:03:11.289Z,15.20
2018-06-12T09:05:38.881Z,14.27
2018-06-12T09:08:06.512Z,13.50
2018-06-12T09:10:34.121Z,12.83
2018-06-12T09:13:01.742Z,13.03
2018-06-12T09:15:29.468Z,12.70
2018-06-12T09:17:58.205Z,12.83
2018-06-12T09:20:25.761Z,13.67
2018-06-12T09:22:53.733Z,13.90
2018-06-12T09:25:25.131Z,14.13
2018-06-12T09:27:52.749Z,19.60
2018-06-12T09:30:20.304Z,27.60
2018-06-12T09:32:47.868Z,16.20
2018-06-12T09:35:15.485Z,15.73
2018-06-12T09:37:43.094Z,16.27
2018-06-12T09:40:10.580Z,16.77
2018-06-12T09:42:38.175Z,18.70
2018-06-12T09:45:05.785Z,16.33
2018-06-12T09:47:34.050Z,17.77
2018-06-12T09:50:02.957Z,17.37
2018-06-12T09:52:30.685Z,17.33
2018-06-12T09:54:58.231Z,16.87
2018-06-12T09:57:25.770Z,17.60
2018-06-12T09:59:53.347Z,18.17
2018-06-12T10:02:20.923Z,20.03
2018-06-12T10:04:48.813Z,19.57
2018-06-12T10:07:16.743Z,21.00
2018-06-12T10:09:44.462Z,20.83
2018-06-12T10:12:12.001Z,19.97
2018-06-12T10:14:39.569Z,17.23
2018-06-12T10:17:07.151Z,17.50
2018-06-12T10:19:34.722Z,17.17
2018-06-12T10:22:02.265Z,18.33
2018-06-12T10:24:31.760Z,17.57
2018-06-12T10:26:59.385Z,20.20
2018-06-12T10:29:26.937Z,19.70
2018-06-12T10:31:54.482Z,18.70
2018-06-12T10:34:22.057Z,16.93
2018-06-12T10:36:49.593Z,27.80
2018-06-12T10:39:17.189Z,20.50
2018-06-12T10:41:44.813Z,16.83
2018-06-12T10:44:12.381Z,18.33
2018-06-12T10:46:39.913Z,16.93
2018-06-12T10:49:07.513Z,16.97
2018-06-12T10:51:35.058Z,16.20
2018-06-12T10:54:02.632Z,16.40
2018-06-12T10:56:30.220Z,17.63
2018-06-12T10:59:00.737Z,17.00
2018-06-12T11:01:28.273Z,16.00
2018-06-12T11:03:55.877Z,15.83
2018-06-12T11:06:23.421Z,15.23
2018-06-12T11:08:50.981Z,15.70
2018-06-12T11:11:18.545Z,16.27
2018-06-12T11:13:46.840Z,15.90
2018-06-12T11:16:14.440Z,15.20
2018-06-12T11:18:42.025Z,13.97
2018-06-12T11:21:09.577Z,13.67
2018-06-12T11:23:37.202Z,13.47
2018-06-12T11:26:04.805Z,12.97
2018-06-12T11:28:32.388Z,12.90
2018-06-12T11:30:59.990Z,13.20
2018-06-12T11:33:27.586Z,13.67
2018-06-12T11:35:55.149Z,14.20
2018-06-12T11:38:22.701Z,15.13
2018-06-12T11:40:50.431Z,15.33
2018-06-12T11:43:18.041Z,15.03
2018-06-12T11:45:45.898Z,15.07
2018-06-12T11:48:13.446Z,14.27
2018-06-12T11:50:41.015Z,15.33
2018-06-12T11:53:08.573Z,14.43
2018-06-12T11:55:36.256Z,15.10
2018-06-12T11:58:04.669Z,14.97
2018-06-12T12:00:32.315Z,14.87
2018-06-12T12:03:04.086Z,13.90
2018-06-12T12:05:31.641Z,13.53
2018-06-12T12:07:59.181Z,14.53
2018-06-12T12:10:26.745Z,13.10
2018-06-12T12:12:54.517Z,13.43
2018-06-12T12:15:22.081Z,15.53
2018-06-12T12:17:49.653Z,15.33
2018-06-12T12:20:17.219Z,14.93
2018-06-12T12:22:44.809Z,15.67
2018-06-12T12:25:12.457Z,15.53
2018-06-12T12:27:39.989Z,13.77
2018-06-12T12:30:07.530Z,15.50
2018-06-12T12:32:35.477Z,15.60
2018-06-12T12:36:05.933Z,14.07
2018-06-12T12:38:33.475Z,12.67
2018-06-12T12:41:01.040Z,12.03
2018-06-12T12:43:28.612Z,11.40
2018-06-12T12:45:56.173Z,12.67
2018-06-12T12:48:24.731Z,12.47
2018-06-12T12:50:52.289Z,11.53
2018-06-12T12:53:19.845Z,11.30
2018-06-12T12:55:47.466Z,12.23
2018-06-12T12:58:16.230Z,12.60
2018-06-12T13:00:43.965Z,11.53
2018-06-12T13:03:11.530Z,11.40
2018-06-12T13:05:40.009Z,11.83
2018-06-12T13:08:07.592Z,12.13
2018-06-12T13:10:35.166Z,12.13
2018-06-12T13:13:02.754Z,11.63
2018-06-12T13:15:30.699Z,13.67
2018-06-12T13:17:58.325Z,13.80
2018-06-12T13:20:26.707Z,13.13
2018-06-12T13:22:54.627Z,14.60
2018-06-12T13:25:22.201Z,15.40
2018-06-12T13:27:49.763Z,15.10
2018-06-12T13:30:20.205Z,17.17
2018-06-12T13:32:47.782Z,17.70
2018-06-12T13:35:15.488Z,20.30
2018-06-12T13:37:43.061Z,20.93
2018-06-12T13:40:11.417Z,20.63
2018-06-12T13:42:38.989Z,21.77
2018-06-12T13:45:06.893Z,60.30
2018-06-12T13:47:34.481Z,28.33
2018-06-12T13:50:02.146Z,23.07
2018-06-12T13:52:29.861Z,23.77
2018-06-12T13:54:58.258Z,24.07
2018-06-12T13:57:25.838Z,25.07
2018-06-12T13:59:53.873Z,25.53
2018-06-12T14:02:21.462Z,25.00
2018-06-12T14:04:49.454Z,25.30
2018-06-12T14:07:18.069Z,25.43
2018-06-12T14:09:45.687Z,25.80
2018-06-12T14:12:13.246Z,25.67
2018-06-12T14:14:40.777Z,26.30
2018-06-12T14:17:08.938Z,26.90
2018-06-12T14:19:36.505Z,26.33
2018-06-12T14:22:04.150Z,24.67
2018-06-12T14:24:31.761Z,23.47
2018-06-12T14:26:59.778Z,22.43
2018-06-12T14:29:27.349Z,22.20
2018-06-12T14:31:54.981Z,22.40
2018-06-12T14:34:24.076Z,21.70
2018-06-12T14:36:51.637Z,21.37
2018-06-12T14:39:26.182Z,21.23
2018-06-12T14:41:53.777Z,20.80
2018-06-12T14:44:21.385Z,20.10
2018-06-12T14:46:48.973Z,18.63
2018-06-12T14:49:16.549Z,18.00
2018-06-12T14:51:44.373Z,18.30
2018-06-12T14:54:11.961Z,17.70
2018-06-12T14:56:39.549Z,16.17
2018-06-12T14:59:07.326Z,16.00
2018-06-12T15:01:34.989Z,16.03
2018-06-12T15:04:02.598Z,16.87
2018-06-12T15:06:30.193Z,21.57
2018-06-12T15:08:57.775Z,17.07
2018-06-12T15:11:25.434Z,17.40
2018-06-12T15:13:53.072Z,18.93
2018-06-12T15:16:20.754Z,19.30
2018-06-12T15:18:49.297Z,19.17
2018-06-12T15:21:16.834Z,21.00
2018-06-12T15:23:44.417Z,17.43
2018-06-12T15:26:12.733Z,16.10
2018-06-12T15:28:40.326Z,16.17
2018-06-12T15:31:07.968Z,15.60
2018-06-12T15:33:36.400Z,14.03
2018-06-12T15:36:04.045Z,14.07
2018-06-12T15:38:32.001Z,15.10
2018-06-12T15:40:59.617Z,15.73
2018-06-12T15:43:27.349Z,15.03
2018-06-12T15:45:54.907Z,16.03
2018-06-12T15:48:22.469Z,15.63
2018-06-12T15:50:50.021Z,15.00
2018-06-12T15:53:17.655Z,15.50
2018-06-12T15:55:45.484Z,15.13
2018-06-12T15:58:13.187Z,15.60
2018-06-12T16:00:40.826Z,14.57
2018-06-12T16:03:08.377Z,14.70
2018-06-12T16:05:35.953Z,14.23
2018-06-12T16:08:03.573Z,15.37
2018-06-12T16:10:31.210Z,15.07
2018-06-12T16:12:58.774Z,15.23
2018-06-12T16:15:26.394Z,15.23
2018-06-12T16:17:53.910Z,15.40
2018-06-12T16:20:21.461Z,15.90
2018-06-12T16:22:49.114Z,16.30
2018-06-12T16:25:16.877Z,16.40
2018-06-12T16:27:45.662Z,16.07
2018-06-12T16:30:13.213Z,16.53
2018-06-12T16:32:40.808Z,17.27
2018-06-12T16:35:08.388Z,16.43
2018-06-12T16:37:35.941Z,16.47
2018-06-12T16:40:03.594Z,15.60
2018-06-12T16:42:32.267Z,15.70
2018-06-12T16:44:59.857Z,14.70
2018-06-12T16:47:27.466Z,17.57
2018-06-12T16:49:55.154Z,20.93
2018-06-12T16:52:22.733Z,18.20
2018-06-12T16:54:50.401Z,17.20
2018-06-12T16:57:17.925Z,15.60
2018-06-12T16:59:45.497Z,16.20
2018-06-12T17:02:13.050Z,16.17
2018-06-12T17:04:40.710Z,15.40
2018-06-12T17:07:08.260Z,16.13
2018-06-12T17:09:35.898Z,16.00
2018-06-12T17:12:03.795Z,15.97
2018-06-12T17:14:31.353Z,16.27
2018-06-12T17:16:58.917Z,16.13
2018-06-12T17:19:26.493Z,17.30
2018-06-12T17:21:54.024Z,16.77
2018-06-12T17:24:21.642Z,17.23
2018-06-12T17:26:52.153Z,15.50
2018-06-12T17:29:19.737Z,15.70
2018-06-12T17:31:47.281Z,16.53
2018-06-12T17:34:14.834Z,16.13
2018-06-12T17:36:42.405Z,16.83
2018-06-12T17:39:09.972Z,17.20
2018-06-12T17:41:37.945Z,16.53
2018-06-12T17:44:05.545Z,16.23
2018-06-12T17:46:33.175Z,15.97
2018-06-12T17:49:00.864Z,15.53
2018-06-12T17:51:28.405Z,21.93
2018-06-12T17:53:55.937Z,23.87
2018-06-12T17:56:23.613Z,16.13
2018-06-12T17:58:51.802Z,15.33
2018-06-12T18:01:19.431Z,15.10
2018-06-12T18:03:46.963Z,14.53
2018-06-12T18:06:14.840Z,15.67
2018-06-12T18:08:42.545Z,14.17
2018-06-12T18:11:10.113Z,13.60
2018-06-12T18:13:41.528Z,15.40
2018-06-12T18:16:09.406Z,14.53
2018-06-12T18:18:37.145Z,15.70
2018-06-12T18:21:04.910Z,14.00
2018-06-12T18:23:32.469Z,14.93
2018-06-12T18:26:00.114Z,13.20
2018-06-12T18:28:27.645Z,18.20
2018-06-12T18:30:55.193Z,23.93
2018-06-12T18:33:22.736Z,24.83
2018-06-12T18:35:50.312Z,16.30
2018-06-12T18:38:17.875Z,15.20
2018-06-12T18:40:45.488Z,15.83
2018-06-12T18:43:13.070Z,17.17
2018-06-12T18:45:41.316Z,16.07
2018-06-12T18:48:08.945Z,16.30
2018-06-12T18:50:36.505Z,16.43
2018-06-12T18:53:04.193Z,16.50
2018-06-12T18:55:31.725Z,16.60
2018-06-12T18:57:59.277Z,16.87
2018-06-12T19:00:26.958Z,14.60
2018-06-12T19:02:54.526Z,16.10
2018-06-12T19:05:22.136Z,17.60
2018-06-12T19:07:49.741Z,16.87
2018-06-12T19:10:17.285Z,16.83
2018-06-12T19:12:44.909Z,17.27
2018-06-12T19:15:12.441Z,16.77
2018-06-12T19:17:40.039Z,17.03
2018-06-12T19:20:07.608Z,16.77
2018-06-12T19:22:35.164Z,59.87
2018-06-12T19:25:02.777Z,57.20
2018-06-12T19:27:30.345Z,18.70
2018-06-12T19:29:57.965Z,16.83
2018-06-12T19:32:26.433Z,17.00
2018-06-12T19:34:54.000Z,16.07
2018-06-12T19:37:21.634Z,16.60
2018-06-12T19:39:49.180Z,16.90
2018-06-12T19:42:16.938Z,16.37
2018-06-12T19:44:44.508Z,18.60
2018-06-12T19:47:12.157Z,18.17
2018-06-12T19:49:39.717Z,17.00
2018-06-12T19:52:07.320Z,18.20
2018-06-12T19:54:34.889Z,17.00
2018-06-12T19:57:02.525Z,17.70
2018-06-12T19:59:30.102Z,18.47
2018-06-12T20:01:57.745Z,94.83
2018-06-12T20:04:25.276Z,73.53
2018-06-12T20:06:52.901Z,33.80
2018-06-12T20:09:20.458Z,18.70
2018-06-12T20:11:48.069Z,18.50
2018-06-12T20:14:15.672Z,18.83
2018-06-12T20:16:43.166Z,18.60
2018-06-12T20:19:10.996Z,19.10
2018-06-12T20:21:38.553Z,18.73
2018-06-12T20:24:06.137Z,20.10
2018-06-12T20:26:33.702Z,18.80
2018-06-12T20:29:01.226Z,18.63
2018-06-12T20:31:28.829Z,20.20
2018-06-12T20:33:57.421Z,20.27
2018-06-12T20:36:25.102Z,18.27
2018-06-12T20:38:52.986Z,16.80
2018-06-12T20:41:20.529Z,16.87
2018-06-12T20:43:48.181Z,16.77
2018-06-12T20:46:15.711Z,17.20
2018-06-12T20:48:43.365Z,16.87
2018-06-12T20:51:11.229Z,16.73
2018-06-12T20:53:38.769Z,16.73
2018-06-12T20:56:06.814Z,15.60
2018-06-12T20:58:34.365Z,16.30
2018-06-12T21:01:02.019Z,15.70
2018-06-12T21:03:29.582Z,16.10
2018-06-12T21:05:57.116Z,16.40
2018-06-12T21:08:24.697Z,15.63
2018-06-12T21:10:52.440Z,15.77
2018-06-12T21:13:20.085Z,16.17
2018-06-12T21:15:47.625Z,15.73
2018-06-12T21:18:15.193Z,15.33
2018-06-12T21:20:42.753Z,15.43
2018-06-12T21:23:10.297Z,15.53
2018-06-12T21:25:37.829Z,15.90
2018-06-12T21:28:05.386Z,15.83
2018-06-12T21:30:34.891Z,15.20
2018-06-12T21:33:02.554Z,15.63
2018-06-12T21:35:30.085Z,15.10
2018-06-12T21:37:57.628Z,14.90
2018-06-12T21:40:25.590Z,14.60
2018-06-12T21:42:53.133Z,14.67
2018-06-12T21:45:20.650Z,14.60
2018-06-12T21:47:49.081Z,15.17
2018-06-12T21:50:16.646Z,14.17
2018-06-12T21:52:44.197Z,14.63
2018-06-12T21:55:11.815Z,15.07
2018-06-12T21:57:39.345Z,14.50
2018-06-12T22:00:07.309Z,13.47
2018-06-12T22:02:34.886Z,14.83
2018-06-12T22:05:03.477Z,14.50
2018-06-12T22:07:31.142Z,14.67
2018-06-12T22:09:58.727Z,14.47
2018-06-12T22:12:26.325Z,14.97
2018-06-12T22:14:53.874Z,14.17
2018-06-12T22:17:21.760Z,14.47
2018-06-12T22:19:50.206Z,14.80
2018-06-12T22:22:17.741Z,13.13
2018-06-12T22:24:45.329Z,14.10
2018-06-12T22:27:12.857Z,12.67
2018-06-12T22:29:40.438Z,12.10
2018-06-12T22:32:08.037Z,12.40
2018-06-12T22:34:36.645Z,12.60
2018-06-12T22:37:04.578Z,12.03
2018-06-12T22:39:32.127Z,11.50
2018-06-12T22:41:59.645Z,12.47
2018-06-12T22:44:27.189Z,11.77
2018-06-12T22:46:54.935Z,11.40
2018-06-12T22:49:22.493Z,11.50
2018-06-12T22:51:50.084Z,10.20
2018-06-12T22:54:17.633Z,10.23
2018-06-12T22:56:46.064Z,12.93
2018-06-12T22:59:13.702Z,10.17
2018-06-12T23:01:41.215Z,9.40
2018-06-12T23:04:08.745Z,8.90
2018-06-12T23:06:36.284Z,8.90
2018-06-12T23:09:06.624Z,8.60
2018-06-12T23:11:34.198Z,8.60
2018-06-12T23:14:02.669Z,8.40
2018-06-12T23:16:30.986Z,8.33
2018-06-12T23:18:58.526Z,7.80
2018-06-12T23:21:47.157Z,8.33
2018-06-12T23:24:16.747Z,7.70
2018-06-12T23:26:45.125Z,7.80
2018-06-12T23:29:12.794Z,7.67
2018-06-12T23:31:40.310Z,7.73
2018-06-12T23:34:07.875Z,7.53
2018-06-12T23:36:35.413Z,7.30
2018-06-12T23:39:04.714Z,7.50
2018-06-12T23:41:33.017Z,6.90
2018-06-12T23:44:00.525Z,7.20
2018-06-12T23:46:36.533Z,7.30
2018-06-12T23:49:04.273Z,7.13
2018-06-12T23:51:31.805Z,6.43
2018-06-12T23:53:59.403Z,7.20
2018-06-12T23:56:27.337Z,6.67
2018-06-12T23:58:54.905Z,7.37
